Time;durP1;ratioP1;P1;durP2;ratioP2;P2;SDS_P1;SDS_P2;PMS_P1;PMS_P2;Temp;Humidity;BMP_temperature;BMP_pressure;BME280_temperature;BME280_humidity;BME280_pressure;Samples;Min_cycle;Max_cycle;Signal;HPM_P1;HPM_P2
2022/06/24 00:03:45;;;;;;;;;;;23.50;1.00;;;;;;10164901;28;84755;-59
2022/06/24 00:09:11;;;;;;;;;;;23.50;1.00;;;;;;10170173;28;84976;-58
2022/06/24 00:14:13;;;;;;;;;;;23.40;1.00;;;;;;10171946;28;84128;-60
2022/06/24 00:19:13;;;;;;;;;;;23.30;62.10;;;;;;10170123;28;84249;-59
2022/06/24 00:24:21;;;;;;;;;;;23.30;89.90;;;;;;10172408;28;84159;-60
2022/06/24 00:29:24;;;;;;;;;;;23.20;94.50;;;;;;10171018;28;84969;-59
2022/06/24 00:34:24;;;;;;;;;;;23.20;99.90;;;;;;10171190;28;84232;-60
2022/06/24 00:39:33;;;;;;;;;;;23.10;99.90;;;;;;10169944;28;84085;-60
2022/06/24 00:44:42;;;;;;;;;;;23.10;99.90;;;;;;10171309;28;84852;-60
2022/06/24 00:49:43;;;;;;;;;;;23.00;99.90;;;;;;10170595;28;84269;-60
2022/06/24 00:54:44;;;;;;;;;;;22.80;1.00;;;;;;10169092;28;85016;-59
2022/06/24 00:59:46;;;;;;;;;;;22.80;1.00;;;;;;10168085;28;87081;-60
2022/06/24 01:04:46;;;;;;;;;;;22.70;1.00;;;;;;10183920;28;86748;-59
2022/06/24 01:09:47;;;;;;;;;;;22.60;1.00;;;;;;10168602;28;84276;-58
2022/06/24 01:14:47;;;;;;;;;;;22.60;1.00;;;;;;10169401;28;84116;-60
2022/06/24 01:19:48;;;;;;;;;;;22.60;1.00;;;;;;10167703;28;85399;-59
2022/06/24 01:24:49;;;;;;;;;;;22.60;99.90;;;;;;10168688;28;84017;-58
2022/06/24 01:29:49;;;;;;;;;;;22.50;99.90;;;;;;10167101;28;84080;-58
2022/06/24 01:34:50;;;;;;;;;;;22.50;99.90;;;;;;10182237;28;85044;-59
2022/06/24 01:39:50;;;;;;;;;;;22.40;99.90;;;;;;10167284;28;84159;-60
2022/06/24 01:44:51;;;;;;;;;;;22.30;1.00;;;;;;10167721;28;84037;-58
2022/06/24 01:49:51;;;;;;;;;;;22.30;1.00;;;;;;10167966;28;84333;-60
2022/06/24 01:54:52;;;;;;;;;;;22.30;1.00;;;;;;10167729;28;85036;-60
2022/06/24 01:59:53;;;;;;;;;;;22.30;1.00;;;;;;10205971;22;84957;-47
2022/06/24 02:04:54;;;;;;;;;;;22.30;99.90;;;;;;10168137;28;84171;-49
2022/06/24 02:15:14;;;;;;;;;;;22.30;1.00;;;;;;10168761;28;84238;-52
2022/06/24 02:20:14;;;;;;;;;;;22.40;1.00;;;;;;10168814;28;84160;-54
2022/06/24 02:25:17;;;;;;;;;;;22.40;1.00;;;;;;10166850;28;84942;-47
2022/06/24 02:30:18;;;;;;;;;;;22.40;1.00;;;;;;10165620;28;85856;-50
2022/06/24 02:35:18;;;;;;;;;;;22.50;21.50;;;;;;10166834;28;84888;-53
2022/06/24 02:45:39;;;;;;;;;;;22.60;1.00;;;;;;10166623;28;84391;-47
2022/06/24 02:50:41;;;;;;;;;;;22.60;99.90;;;;;;10126833;28;86895;-48
2022/06/24 02:55:42;;;;;;;;;;;22.60;99.90;;;;;;10134515;28;84857;-50
2022/06/24 03:00:42;;;;;;;;;;;22.70;1.00;;;;;;10189185;28;84251;-47
2022/06/24 03:05:43;;;;;;;;;;;22.70;1.00;;;;;;10198770;28;84255;-49
2022/06/24 03:10:44;;;;;;;;;;;22.60;99.90;;;;;;10167477;28;84198;-52
2022/06/24 03:15:45;;;;;;;;;;;22.60;1.00;;;;;;10166165;28;86816;-47
2022/06/24 03:20:46;;;;;;;;;;;22.50;1.00;;;;;;10168620;28;84547;-47
2022/06/24 03:25:46;;;;;;;;;;;22.40;1.00;;;;;;10168513;28;84522;-47
2022/06/24 03:30:47;;;;;;;;;;;22.30;1.00;;;;;;10167093;28;84700;-51
2022/06/24 03:35:48;;;;;;;;;;;22.20;1.00;;;;;;10164668;28;87441;-51
2022/06/24 03:40:48;;;;;;;;;;;22.20;1.00;;;;;;10167525;28;84184;-50
2022/06/24 03:45:49;;;;;;;;;;;22.20;1.00;;;;;;10170476;28;84979;-50
2022/06/24 03:50:49;;;;;;;;;;;22.10;1.00;;;;;;10171212;28;86794;-49
2022/06/24 03:55:50;;;;;;;;;;;22.20;1.00;;;;;;10173310;28;84892;-48
2022/06/24 04:00:51;;;;;;;;;;;22.00;1.00;;;;;;10171859;28;84266;-50
2022/06/24 04:05:51;;;;;;;;;;;22.00;1.00;;;;;;10172210;28;84955;-48
2022/06/24 04:10:52;;;;;;;;;;;22.10;1.00;;;;;;10169876;28;84710;-48
2022/06/24 04:15:54;;;;;;;;;;;22.00;1.00;;;;;;10171398;28;84062;-54
2022/06/24 04:20:55;;;;;;;;;;;22.10;1.00;;;;;;10170446;28;84710;-48
2022/06/24 04:25:55;;;;;;;;;;;22.20;1.00;;;;;;10175845;28;87462;-51
2022/06/24 04:30:56;;;;;;;;;;;22.10;1.00;;;;;;10169827;28;84948;-47
2022/06/24 04:35:56;;;;;;;;;;;22.20;1.00;;;;;;10175705;28;86153;-51
2022/06/24 04:40:57;;;;;;;;;;;22.20;1.00;;;;;;10175721;28;85666;-49
2022/06/24 04:45:57;;;;;;;;;;;22.20;1.00;;;;;;10169469;28;84220;-48
2022/06/24 04:50:58;;;;;;;;;;;22.20;1.00;;;;;;10174592;28;86097;-48
2022/06/24 04:55:58;;;;;;;;;;;22.10;1.00;;;;;;10167857;28;84018;-47
2022/06/24 05:00:59;;;;;;;;;;;22.10;98.10;;;;;;10168385;28;84660;-49
2022/06/24 05:05:59;;;;;;;;;;;22.00;93.90;;;;;;10173709;28;84962;-47
2022/06/24 05:11:00;;;;;;;;;;;21.90;99.90;;;;;;10170372;28;85504;-53
2022/06/24 05:16:00;;;;;;;;;;;21.70;99.90;;;;;;10168279;28;84165;-50
2022/06/24 05:21:02;;;;;;;;;;;21.60;99.90;;;;;;10168091;28;84711;-46
2022/06/24 05:26:02;;;;;;;;;;;21.50;99.90;;;;;;10158452;28;87545;-50
2022/06/24 05:31:03;;;;;;;;;;;21.60;99.90;;;;;;10159257;28;85910;-48
2022/06/24 05:36:04;;;;;;;;;;;21.70;99.90;;;;;;10168050;28;84654;-52
2022/06/24 05:41:04;;;;;;;;;;;21.70;99.90;;;;;;10169611;28;84903;-48
2022/06/24 05:46:05;;;;;;;;;;;21.50;99.90;;;;;;10158620;28;84286;-49
2022/06/24 05:51:12;;;;;;;;;;;21.50;99.90;;;;;;10151954;28;84857;-49
2022/06/24 05:56:13;;;;;;;;;;;21.40;99.90;;;;;;10155784;28;84938;-47
2022/06/24 06:01:14;;;;;;;;;;;21.30;99.90;;;;;;10176269;28;84304;-48
2022/06/24 06:06:14;;;;;;;;;;;21.20;99.90;;;;;;10195107;28;85216;-51
2022/06/24 06:11:15;;;;;;;;;;;21.10;99.90;;;;;;10175182;28;84847;-50
2022/06/24 06:16:16;;;;;;;;;;;20.90;99.90;;;;;;10172412;28;84967;-56
2022/06/24 06:21:16;;;;;;;;;;;20.90;99.90;;;;;;10179498;28;86179;-56
2022/06/24 06:26:17;;;;;;;;;;;21.00;99.90;;;;;;10169426;28;84174;-60
2022/06/24 06:31:17;;;;;;;;;;;21.00;99.90;;;;;;10172661;28;85201;-52
2022/06/24 06:36:18;;;;;;;;;;;21.00;99.90;;;;;;10174161;28;84999;-59
2022/06/24 06:41:19;;;;;;;;;;;20.80;99.90;;;;;;10168920;28;85007;-62
2022/06/24 06:46:19;;;;;;;;;;;20.70;99.90;;;;;;10179016;28;86327;-59
2022/06/24 06:51:20;;;;;;;;;;;20.60;99.90;;;;;;10174964;28;84096;-57
2022/06/24 06:56:20;;;;;;;;;;;20.50;99.90;;;;;;10173574;28;84173;-60
2022/06/24 07:01:21;;;;;;;;;;;20.40;99.90;;;;;;10166248;28;84921;-61
2022/06/24 07:06:22;;;;;;;;;;;20.50;99.90;;;;;;10170080;28;85315;-61
2022/06/24 07:11:22;;;;;;;;;;;20.40;99.90;;;;;;10147161;28;84899;-62
2022/06/24 07:16:23;;;;;;;;;;;20.40;99.90;;;;;;10195892;28;84513;-61
2022/06/24 07:21:23;;;;;;;;;;;20.20;99.90;;;;;;10185069;28;84157;-54
2022/06/24 07:26:24;;;;;;;;;;;20.20;99.90;;;;;;10173352;28;84739;-60
2022/06/24 07:31:24;;;;;;;;;;;20.20;99.90;;;;;;10210335;28;84161;-59
2022/06/24 07:36:25;;;;;;;;;;;20.20;99.90;;;;;;10206739;28;84962;-58
2022/06/24 07:41:25;;;;;;;;;;;20.30;99.90;;;;;;10173425;28;84298;-59
2022/06/24 07:46:26;;;;;;;;;;;20.50;99.90;;;;;;10169204;28;84107;-60
2022/06/24 07:51:27;;;;;;;;;;;21.00;99.90;;;;;;10166914;28;85881;-58
2022/06/24 08:01:47;;;;;;;;;;;21.30;99.90;;;;;;10192076;22;84897;-47
2022/06/24 08:06:49;;;;;;;;;;;21.20;99.90;;;;;;10216614;28;84955;-53
2022/06/24 08:11:50;;;;;;;;;;;21.20;99.90;;;;;;10227443;28;84340;-57
2022/06/24 08:16:51;;;;;;;;;;;21.30;99.90;;;;;;10229319;28;86304;-63
2022/06/24 08:21:52;;;;;;;;;;;21.20;99.90;;;;;;10204091;28;85002;-62
2022/06/24 08:26:52;;;;;;;;;;;21.30;99.90;;;;;;10214008;28;84547;-52
2022/06/24 08:31:53;;;;;;;;;;;21.40;99.90;;;;;;10169375;28;85094;-59
2022/06/24 08:36:53;;;;;;;;;;;21.80;99.90;;;;;;10214341;28;94585;-55
2022/06/24 08:41:55;;;;;;;;;;;22.30;99.90;;;;;;10212101;28;84289;-51
2022/06/24 08:46:56;;;;;;;;;;;22.30;99.90;;;;;;10203759;28;85412;-46
2022/06/24 08:51:58;;;;;;;;;;;22.20;99.90;;;;;;10205344;28;84903;-50
2022/06/24 08:56:59;;;;;;;;;;;22.20;99.90;;;;;;10207297;28;84886;-57
2022/06/24 09:01:59;;;;;;;;;;;22.20;99.90;;;;;;10206061;28;84132;-57
2022/06/24 09:07:00;;;;;;;;;;;22.50;99.90;;;;;;10208351;28;86258;-47
2022/06/24 09:12:02;;;;;;;;;;;22.20;99.90;;;;;;10209255;28;85302;-48
2022/06/24 09:17:06;;;;;;;;;;;21.80;99.90;;;;;;10210113;28;84152;-50
2022/06/24 09:22:07;;;;;;;;;;;21.70;99.90;;;;;;10207854;28;84091;-59
2022/06/24 09:27:08;;;;;;;;;;;22.00;99.90;;;;;;10208911;28;84284;-59
2022/06/24 09:32:09;;;;;;;;;;;22.10;99.90;;;;;;10208011;28;84066;-49
2022/06/24 09:37:10;;;;;;;;;;;22.00;99.90;;;;;;10207366;28;84261;-57
2022/06/24 09:42:18;;;;;;;;;;;22.00;99.90;;;;;;10206156;28;84349;-56
2022/06/24 09:47:22;;;;;;;;;;;22.70;99.90;;;;;;10215625;28;84032;-59
2022/06/24 09:52:23;;;;;;;;;;;24.00;1.00;;;;;;10237854;28;84905;-58
2022/06/24 09:57:24;;;;;;;;;;;24.30;1.00;;;;;;10205321;28;84280;-62
2022/06/24 10:02:26;;;;;;;;;;;24.10;1.00;;;;;;10207177;28;86624;-60
2022/06/24 10:07:30;;;;;;;;;;;24.00;1.00;;;;;;10205421;28;84759;-61
2022/06/24 10:12:34;;;;;;;;;;;23.70;1.00;;;;;;10205565;28;84877;-63
2022/06/24 10:17:35;;;;;;;;;;;23.80;1.00;;;;;;10225767;28;84912;-59
2022/06/24 10:22:42;;;;;;;;;;;24.00;1.00;;;;;;10223824;28;86846;-57
2022/06/24 10:27:57;;;;;;;;;;;24.00;1.00;;;;;;10218780;28;84824;-47
2022/06/24 10:33:30;;;;;;;;;;;23.50;1.00;;;;;;10234634;28;84976;-56
2022/06/24 10:38:34;;;;;;;;;;;23.30;1.00;;;;;;10171014;28;84701;-57
2022/06/24 10:43:38;;;;;;;;;;;23.50;1.00;;;;;;10201152;28;84969;-56
2022/06/24 10:48:44;;;;;;;;;;;24.10;1.00;;;;;;10202468;28;84320;-57
2022/06/24 10:54:03;;;;;;;;;;;24.60;1.00;;;;;;10203714;28;84182;-57
2022/06/24 10:59:03;;;;;;;;;;;24.80;1.00;;;;;;10219767;28;84270;-57
2022/06/24 11:04:04;;;;;;;;;;;24.70;99.90;;;;;;10224542;28;86226;-55
2022/06/24 11:09:06;;;;;;;;;;;24.50;99.90;;;;;;10237701;28;85020;-55
2022/06/24 11:14:25;;;;;;;;;;;24.00;1.00;;;;;;10218502;28;84725;-54
2022/06/24 11:19:26;;;;;;;;;;;24.00;1.00;;;;;;10204546;28;84959;-55
2022/06/24 11:24:27;;;;;;;;;;;24.00;1.00;;;;;;10203392;28;84092;-52
2022/06/24 11:29:28;;;;;;;;;;;23.80;1.00;;;;;;10202268;28;84738;-53
2022/06/24 11:34:28;;;;;;;;;;;23.60;1.00;;;;;;10204090;28;85077;-56
2022/06/24 11:39:31;;;;;;;;;;;23.60;1.00;;;;;;10204720;28;84034;-55
2022/06/24 11:44:42;;;;;;;;;;;24.00;99.90;;;;;;10213232;28;84243;-55
2022/06/24 11:49:44;;;;;;;;;;;24.40;99.90;;;;;;10199683;28;84566;-55
2022/06/24 11:54:45;;;;;;;;;;;24.80;68.20;;;;;;10206383;28;84700;-53
2022/06/24 11:59:45;;;;;;;;;;;24.80;23.20;;;;;;10202355;28;84521;-52
2022/06/24 12:04:47;;;;;;;;;;;24.90;1.00;;;;;;10208630;28;84321;-56
2022/06/24 12:09:49;;;;;;;;;;;25.10;1.00;;;;;;10208312;28;84945;-56
2022/06/24 12:14:55;;;;;;;;;;;25.20;1.00;;;;;;10212855;28;86960;-55
2022/06/24 12:20:04;;;;;;;;;;;25.40;1.00;;;;;;10211917;28;85417;-55
2022/06/24 12:25:06;;;;;;;;;;;25.40;1.00;;;;;;10210839;28;84107;-55
2022/06/24 12:30:18;;;;;;;;;;;26.40;99.90;;;;;;10208322;28;86919;-57
2022/06/24 12:35:31;;;;;;;;;;;27.80;99.90;;;;;;10206588;28;84189;-55
2022/06/24 12:40:32;;;;;;;;;;;28.40;1.00;;;;;;10208451;28;85085;-56
2022/06/24 12:45:37;;;;;;;;;;;28.00;99.90;;;;;;10210789;28;85125;-56
2022/06/24 12:50:38;;;;;;;;;;;26.90;99.90;;;;;;10217434;28;84692;-55
2022/06/24 12:55:38;;;;;;;;;;;26.40;1.00;;;;;;10206607;28;84788;-55
2022/06/24 13:00:39;;;;;;;;;;;26.00;99.90;;;;;;10205687;28;84183;-54
2022/06/24 13:05:40;;;;;;;;;;;26.00;99.90;;;;;;10207629;28;84788;-53
2022/06/24 13:10:40;;;;;;;;;;;25.80;99.90;;;;;;10199311;28;85923;-55
2022/06/24 13:15:41;;;;;;;;;;;25.50;1.00;;;;;;10227041;28;86123;-55
2022/06/24 13:20:42;;;;;;;;;;;26.30;1.00;;;;;;10249319;28;84847;-58
2022/06/24 13:25:42;;;;;;;;;;;28.00;1.00;;;;;;10243994;28;85361;-54
2022/06/24 13:30:43;;;;;;;;;;;28.40;1.00;;;;;;10218990;28;84099;-54
2022/06/24 13:35:43;;;;;;;;;;;28.10;1.00;;;;;;10205565;28;84332;-55
2022/06/24 13:40:44;;;;;;;;;;;28.50;99.90;;;;;;10204659;28;85970;-54
2022/06/24 13:45:45;;;;;;;;;;;29.50;78.60;;;;;;10207140;28;86523;-53
2022/06/24 13:50:46;;;;;;;;;;;29.90;1.00;;;;;;10198724;28;84933;-53
2022/06/24 13:55:46;;;;;;;;;;;30.50;1.00;;;;;;10205383;28;85138;-53
2022/06/24 14:06:19;;;;;;;;;;;29.40;1.00;;;;;;10204027;28;84359;-51
2022/06/24 14:11:19;;;;;;;;;;;28.90;1.00;;;;;;10202990;28;85043;-52
2022/06/24 14:16:20;;;;;;;;;;;28.10;1.00;;;;;;10204841;28;84788;-54
2022/06/24 14:21:21;;;;;;;;;;;27.80;1.00;;;;;;10206222;28;84936;-54
2022/06/24 14:26:21;;;;;;;;;;;27.40;99.90;;;;;;10205252;28;84948;-51
2022/06/24 14:31:22;;;;;;;;;;;27.20;1.00;;;;;;10205629;28;84092;-51
2022/06/24 14:36:23;;;;;;;;;;;27.40;1.00;;;;;;10205133;28;84077;-52
2022/06/24 14:41:23;;;;;;;;;;;27.30;99.90;;;;;;10204051;28;84147;-51
2022/06/24 14:46:24;;;;;;;;;;;27.20;99.90;;;;;;10204769;28;84371;-55
2022/06/24 14:51:24;;;;;;;;;;;27.50;99.90;;;;;;10205763;28;84306;-51
2022/06/24 14:56:25;;;;;;;;;;;27.10;95.40;;;;;;10204843;28;84852;-48
2022/06/24 15:01:26;;;;;;;;;;;27.00;99.90;;;;;;10203686;28;84761;-48
2022/06/24 15:06:27;;;;;;;;;;;26.90;99.90;;;;;;10204216;28;84823;-52
2022/06/24 15:11:28;;;;;;;;;;;26.40;1.00;;;;;;10203596;28;84391;-50
2022/06/24 15:16:28;;;;;;;;;;;26.40;1.00;;;;;;10203874;28;84829;-55
2022/06/24 15:21:31;;;;;;;;;;;26.60;1.00;;;;;;10204125;28;84311;-54
2022/06/24 15:26:31;;;;;;;;;;;26.50;1.00;;;;;;10203035;28;84981;-50
2022/06/24 15:31:32;;;;;;;;;;;26.60;54.50;;;;;;10202863;28;84697;-51
2022/06/24 15:36:32;;;;;;;;;;;26.70;1.00;;;;;;10199165;28;84499;-54
2022/06/24 15:41:33;;;;;;;;;;;26.80;6.20;;;;;;10201931;28;85071;-52
2022/06/24 15:46:34;;;;;;;;;;;26.80;99.90;;;;;;10205297;28;84804;-53
2022/06/24 15:51:34;;;;;;;;;;;26.60;99.90;;;;;;10205022;28;84506;-52
2022/06/24 15:56:35;;;;;;;;;;;26.70;53.40;;;;;;10204592;28;85017;-52
2022/06/24 16:01:35;;;;;;;;;;;26.80;99.90;;;;;;10204494;28;85088;-53
2022/06/24 16:06:36;;;;;;;;;;;26.80;99.90;;;;;;10203797;28;84291;-56
2022/06/24 16:11:37;;;;;;;;;;;27.00;4.20;;;;;;10183321;28;84994;-50
2022/06/24 16:16:37;;;;;;;;;;;27.00;99.90;;;;;;10174310;28;84842;-58
2022/06/24 16:21:38;;;;;;;;;;;26.90;99.90;;;;;;10203911;28;86922;-52
2022/06/24 16:31:58;;;;;;;;;;;26.60;1.00;;;;;;10172889;28;84115;-53
2022/06/24 16:36:58;;;;;;;;;;;26.30;1.00;;;;;;10165790;28;84826;-59
2022/06/24 16:41:59;;;;;;;;;;;26.20;1.00;;;;;;10163514;28;84891;-54
2022/06/24 16:46:59;;;;;;;;;;;26.30;99.90;;;;;;10192801;28;84860;-52
2022/06/24 16:52:00;;;;;;;;;;;26.20;1.00;;;;;;10208398;28;84911;-51
2022/06/24 16:57:00;;;;;;;;;;;26.20;99.90;;;;;;10210095;28;84312;-55
2022/06/24 17:02:01;;;;;;;;;;;25.60;1.00;;;;;;10207424;28;86158;-53
2022/06/24 17:07:02;;;;;;;;;;;25.30;1.00;;;;;;10209317;28;84941;-50
2022/06/24 17:12:02;;;;;;;;;;;25.40;1.00;;;;;;10208929;28;84291;-56
2022/06/24 17:17:04;;;;;;;;;;;25.20;99.90;;;;;;10244735;28;85179;-54
2022/06/24 17:22:05;;;;;;;;;;;25.30;1.00;;;;;;10203032;28;84480;-53
2022/06/24 17:27:05;;;;;;;;;;;25.30;99.90;;;;;;10187179;28;85679;-52
2022/06/24 17:32:06;;;;;;;;;;;25.40;99.90;;;;;;10185903;28;85073;-53
2022/06/24 17:37:07;;;;;;;;;;;25.30;1.00;;;;;;10188393;28;85011;-57
2022/06/24 17:42:08;;;;;;;;;;;25.20;1.00;;;;;;10188554;28;84166;-47
2022/06/24 17:47:09;;;;;;;;;;;24.90;99.90;;;;;;10191249;28;84338;-54
2022/06/24 17:52:09;;;;;;;;;;;24.90;99.90;;;;;;10207694;28;84467;-59
2022/06/24 17:57:10;;;;;;;;;;;25.00;99.90;;;;;;10208919;28;84945;-52
2022/06/24 18:02:11;;;;;;;;;;;24.90;99.90;;;;;;10204347;28;85199;-56
2022/06/24 18:07:11;;;;;;;;;;;24.90;99.90;;;;;;10209000;28;84621;-53
2022/06/24 18:12:12;;;;;;;;;;;24.80;1.00;;;;;;10235177;28;85313;-65
2022/06/24 18:17:12;;;;;;;;;;;24.80;1.00;;;;;;10242198;28;85673;-63
2022/06/24 18:22:13;;;;;;;;;;;24.70;1.00;;;;;;10211377;28;84899;-57
2022/06/24 18:27:14;;;;;;;;;;;24.60;99.90;;;;;;10217419;28;84973;-62
2022/06/24 18:32:14;;;;;;;;;;;24.60;1.00;;;;;;10208929;28;83995;-61
2022/06/24 18:37:15;;;;;;;;;;;24.50;1.00;;;;;;10199977;28;84293;-50
2022/06/24 18:42:15;;;;;;;;;;;24.40;1.00;;;;;;10201353;28;84985;-60
2022/06/24 18:47:16;;;;;;;;;;;24.40;1.00;;;;;;10206988;28;84215;-62
2022/06/24 18:52:16;;;;;;;;;;;24.40;1.00;;;;;;10213922;28;84818;-59
2022/06/24 18:57:17;;;;;;;;;;;24.40;1.00;;;;;;10206548;28;84575;-53
2022/06/24 19:02:18;;;;;;;;;;;24.40;1.00;;;;;;10206565;28;85196;-65
2022/06/24 19:07:18;;;;;;;;;;;24.40;1.00;;;;;;10201006;28;84074;-61
2022/06/24 19:12:19;;;;;;;;;;;24.30;1.00;;;;;;10182512;28;85608;-60
2022/06/24 19:17:19;;;;;;;;;;;24.10;99.90;;;;;;10216565;28;85232;-55
2022/06/24 19:22:20;;;;;;;;;;;23.70;1.00;;;;;;10190795;28;84844;-58
2022/06/24 19:27:21;;;;;;;;;;;23.30;1.00;;;;;;10205561;28;84510;-56
2022/06/24 19:32:23;;;;;;;;;;;23.00;1.00;;;;;;10204923;28;84153;-56
2022/06/24 19:37:24;;;;;;;;;;;23.00;1.00;;;;;;10214225;28;84890;-54
2022/06/24 19:42:24;;;;;;;;;;;22.90;1.00;;;;;;10204019;28;84039;-51
2022/06/24 19:47:26;;;;;;;;;;;22.80;1.00;;;;;;10205199;28;84888;-56
2022/06/24 19:52:27;;;;;;;;;;;22.70;1.00;;;;;;10202185;28;84947;-51
2022/06/24 19:57:27;;;;;;;;;;;22.50;1.00;;;;;;10206822;28;85310;-52
2022/06/24 20:07:47;;;;;;;;;;;22.20;1.00;;;;;;10202091;28;84194;-56
2022/06/24 20:12:48;;;;;;;;;;;22.10;1.00;;;;;;10195751;28;84209;-57
2022/06/24 20:17:48;;;;;;;;;;;22.10;1.00;;;;;;10193566;28;84381;-58
2022/06/24 20:22:49;;;;;;;;;;;22.00;1.00;;;;;;10183542;28;84744;-57
2022/06/24 20:27:50;;;;;;;;;;;21.80;1.00;;;;;;10169867;28;85017;-58
2022/06/24 20:32:50;;;;;;;;;;;21.60;1.00;;;;;;10175049;28;85728;-55
2022/06/24 20:37:51;;;;;;;;;;;21.50;37.10;;;;;;10184538;28;84982;-53
2022/06/24 20:42:51;;;;;;;;;;;21.40;55.20;;;;;;10188280;28;86879;-52
2022/06/24 20:47:52;;;;;;;;;;;21.40;76.30;;;;;;10190239;28;85386;-56
2022/06/24 20:52:52;;;;;;;;;;;21.40;83.80;;;;;;10188773;28;84971;-59
2022/06/24 20:57:53;;;;;;;;;;;21.20;99.90;;;;;;10190960;28;84106;-56
2022/06/24 21:02:54;;;;;;;;;;;21.10;99.90;;;;;;10188327;28;84184;-57
2022/06/24 21:07:56;;;;;;;;;;;21.20;99.90;;;;;;10186993;28;85407;-59
2022/06/24 21:12:56;;;;;;;;;;;20.90;99.90;;;;;;10194415;28;87483;-55
2022/06/24 21:17:57;;;;;;;;;;;20.80;99.90;;;;;;10190826;28;84320;-57
2022/06/24 21:22:57;;;;;;;;;;;20.60;99.90;;;;;;10188644;28;84162;-54
2022/06/24 21:27:58;;;;;;;;;;;20.40;99.90;;;;;;10177815;28;84494;-54
2022/06/24 21:32:58;;;;;;;;;;;20.40;99.90;;;;;;10185719;28;84209;-58
2022/06/24 21:37:59;;;;;;;;;;;20.30;99.90;;;;;;10168626;28;84178;-55
2022/06/24 21:43:00;;;;;;;;;;;20.30;99.90;;;;;;10169570;28;84153;-57
2022/06/24 21:48:00;;;;;;;;;;;20.30;99.90;;;;;;10170539;28;85046;-54
2022/06/24 21:53:01;;;;;;;;;;;20.20;99.90;;;;;;10170154;28;84682;-57
2022/06/24 21:58:02;;;;;;;;;;;20.20;99.90;;;;;;10169100;28;85322;-53
2022/06/24 22:03:02;;;;;;;;;;;20.00;99.90;;;;;;10166881;28;85136;-56
2022/06/24 22:08:12;;;;;;;;;;;20.00;99.90;;;;;;10169221;28;84208;-54
2022/06/24 22:13:12;;;;;;;;;;;19.90;99.90;;;;;;10167203;28;85389;-55
2022/06/24 22:18:13;;;;;;;;;;;19.90;99.90;;;;;;10168462;28;85345;-54
2022/06/24 22:23:14;;;;;;;;;;;19.90;99.90;;;;;;10168393;28;84205;-53
2022/06/24 22:28:15;;;;;;;;;;;19.90;99.90;;;;;;10166973;28;84040;-53
2022/06/24 22:33:16;;;;;;;;;;;19.70;99.90;;;;;;10167095;28;84346;-52
2022/06/24 22:38:16;;;;;;;;;;;19.70;99.90;;;;;;10183975;28;85698;-55
2022/06/24 22:43:17;;;;;;;;;;;19.80;99.90;;;;;;10206974;28;84121;-54
2022/06/24 22:48:17;;;;;;;;;;;19.70;99.90;;;;;;10196171;28;84078;-57
2022/06/24 22:53:18;;;;;;;;;;;19.60;99.90;;;;;;10169728;28;84094;-54
2022/06/24 22:58:19;;;;;;;;;;;19.60;99.90;;;;;;10165159;28;84777;-56
2022/06/24 23:03:19;;;;;;;;;;;19.50;99.90;;;;;;10165141;28;84697;-58
2022/06/24 23:08:20;;;;;;;;;;;19.50;99.90;;;;;;10166554;28;84262;-56
2022/06/24 23:13:21;;;;;;;;;;;19.50;99.90;;;;;;10164542;28;84239;-56
2022/06/24 23:18:21;;;;;;;;;;;19.50;99.90;;;;;;10165178;28;84089;-54
2022/06/24 23:23:22;;;;;;;;;;;19.40;99.90;;;;;;10168333;28;84943;-56
2022/06/24 23:28:22;;;;;;;;;;;19.20;99.90;;;;;;10184431;28;84513;-53
2022/06/24 23:33:23;;;;;;;;;;;19.10;99.90;;;;;;10196336;28;84278;-57
2022/06/24 23:38:24;;;;;;;;;;;18.90;99.90;;;;;;10207310;28;84072;-55
2022/06/24 23:43:25;;;;;;;;;;;18.80;99.90;;;;;;10206354;28;84207;-54
2022/06/24 23:53:45;;;;;;;;;;;18.70;99.90;;;;;;10204752;28;84742;-56
2022/06/24 23:58:46;;;;;;;;;;;18.80;99.90;;;;;;10203883;28;84053;-54
